createdAt,value
2022-09-12T00:00:39.864Z,15.37
2022-09-12T00:03:06.181Z,13.18
2022-09-12T00:05:33.137Z,14.40
2022-09-12T00:08:00.622Z,14.52
2022-09-12T00:10:27.228Z,14.48
2022-09-12T00:12:53.607Z,15.40
2022-09-12T00:15:20.048Z,18.55
2022-09-12T00:17:46.380Z,14.23
2022-09-12T00:20:12.738Z,14.68
2022-09-12T00:22:39.304Z,14.00
2022-09-12T00:25:06.146Z,14.70
2022-09-12T00:27:32.476Z,15.52
2022-09-12T00:29:58.823Z,15.30
2022-09-12T00:32:25.148Z,16.38
2022-09-12T00:34:51.483Z,15.68
2022-09-12T00:37:17.832Z,16.67
2022-09-12T00:39:44.644Z,16.98
2022-09-12T00:42:12.677Z,17.17
2022-09-12T00:44:38.949Z,16.73
2022-09-12T00:47:27.995Z,14.80
2022-09-12T00:50:11.236Z,14.30
2022-09-12T00:52:51.548Z,15.50
2022-09-12T00:55:41.144Z,13.55
2022-09-12T00:58:16.799Z,14.98
2022-09-12T01:00:43.395Z,14.10
2022-09-12T01:03:14.648Z,14.93
2022-09-12T01:05:47.813Z,15.82
2022-09-12T01:08:14.330Z,14.77
2022-09-12T01:10:42.447Z,17.40
2022-09-12T01:13:10.643Z,18.55
2022-09-12T01:15:39.311Z,17.47
2022-09-12T01:18:12.805Z,16.60
2022-09-12T01:20:57.868Z,14.85
2022-09-12T01:23:42.868Z,16.40
2022-09-12T01:26:38.227Z,16.63
2022-09-12T01:29:10.823Z,16.87
2022-09-12T01:31:42.511Z,15.75
2022-09-12T01:34:20.801Z,15.55
2022-09-12T01:37:01.256Z,16.80
2022-09-12T01:39:40.869Z,16.17
2022-09-12T01:42:26.783Z,16.37
2022-09-12T01:45:31.416Z,16.33
2022-09-12T01:48:21.798Z,16.17
2022-09-12T01:50:56.616Z,15.85
2022-09-12T01:53:29.394Z,16.08
2022-09-12T01:56:08.106Z,18.93
2022-09-12T01:58:46.862Z,16.00
2022-09-12T02:01:19.967Z,18.45
2022-09-12T02:03:53.562Z,16.48
2022-09-12T02:06:28.055Z,16.45
2022-09-12T02:09:07.447Z,15.37
2022-09-12T02:11:38.513Z,15.80
2022-09-12T02:14:16.600Z,16.73
2022-09-12T02:16:49.379Z,17.80
2022-09-12T02:19:19.881Z,17.25
2022-09-12T02:21:55.285Z,17.03
2022-09-12T02:24:24.091Z,20.42
2022-09-12T02:26:56.871Z,15.60
2022-09-12T02:29:23.335Z,16.58
2022-09-12T02:31:57.395Z,15.18
2022-09-12T02:34:40.981Z,16.20
2022-09-12T02:37:32.414Z,15.50
2022-09-12T02:39:59.951Z,16.42
2022-09-12T02:42:27.032Z,17.52
2022-09-12T02:44:55.834Z,19.48
2022-09-12T02:47:46.882Z,17.67
2022-09-12T02:50:13.767Z,19.15
2022-09-12T02:52:42.296Z,20.85
2022-09-12T02:55:11.616Z,14.85
2022-09-12T02:57:38.339Z,17.00
2022-09-12T03:00:06.047Z,18.73
2022-09-12T03:02:51.352Z,19.63
2022-09-12T03:05:41.107Z,18.48
2022-09-12T03:08:23.533Z,19.98
2022-09-12T03:11:16.587Z,17.67
2022-09-12T03:14:02.378Z,17.73
2022-09-12T03:16:55.916Z,17.20
2022-09-12T03:19:48.296Z,15.73
2022-09-12T03:22:36.295Z,15.75
2022-09-12T03:25:35.952Z,15.07
2022-09-12T03:28:08.113Z,17.43
2022-09-12T03:30:43.169Z,16.55
2022-09-12T03:33:14.424Z,17.00
2022-09-12T03:35:41.300Z,20.90
2022-09-12T03:38:08.375Z,21.02
2022-09-12T03:40:35.913Z,19.17
2022-09-12T03:43:03.076Z,17.13
2022-09-12T03:45:29.545Z,16.58
2022-09-12T03:47:55.919Z,17.08
2022-09-12T03:50:22.601Z,20.10
2022-09-12T03:52:49.026Z,20.53
2022-09-12T03:55:16.011Z,20.13
2022-09-12T03:57:42.331Z,19.20
2022-09-12T04:00:09.007Z,20.08
2022-09-12T04:02:35.473Z,17.27
2022-09-12T04:05:01.901Z,20.80
2022-09-12T04:07:28.261Z,19.65
2022-09-12T04:09:54.850Z,16.30
2022-09-12T04:12:21.212Z,19.83
2022-09-12T04:14:48.206Z,17.85
2022-09-12T04:17:14.945Z,20.73
2022-09-12T04:19:41.317Z,19.83
2022-09-12T04:22:07.651Z,20.25
2022-09-12T04:24:34.035Z,17.85
2022-09-12T04:27:02.041Z,19.75
2022-09-12T04:29:31.395Z,16.30
2022-09-12T04:31:57.754Z,19.13
2022-09-12T04:34:24.100Z,31.20
2022-09-12T04:36:50.448Z,19.77
2022-09-12T04:39:16.993Z,18.80
2022-09-12T04:41:43.415Z,21.10
2022-09-12T04:44:14.093Z,19.83
2022-09-12T04:46:44.567Z,20.65
2022-09-12T04:49:12.524Z,21.13
2022-09-12T04:51:40.732Z,16.77
2022-09-12T04:54:12.527Z,22.10
2022-09-12T04:56:40.417Z,16.55
2022-09-12T04:59:08.573Z,19.73
2022-09-12T05:01:35.864Z,20.25
2022-09-12T05:04:03.630Z,20.92
2022-09-12T05:06:34.377Z,20.87
2022-09-12T05:09:01.895Z,22.73
2022-09-12T05:11:53.038Z,22.77
2022-09-12T05:14:17.425Z,23.00
2022-09-12T05:16:48.566Z,21.38
2022-09-12T05:19:15.787Z,20.30
2022-09-12T05:21:42.128Z,20.23
2022-09-12T05:24:11.347Z,18.92
2022-09-12T05:26:37.792Z,23.02
2022-09-12T05:29:06.054Z,22.10
2022-09-12T05:31:32.498Z,19.53
2022-09-12T05:33:58.863Z,24.55
2022-09-12T05:36:27.572Z,21.25
2022-09-12T05:38:54.228Z,24.08
2022-09-12T05:41:30.672Z,18.63
2022-09-12T05:43:59.095Z,20.37
2022-09-12T05:46:28.165Z,19.65
2022-09-12T05:48:56.589Z,22.70
2022-09-12T05:51:27.971Z,17.50
2022-09-12T05:53:58.787Z,19.55
2022-09-12T05:56:27.379Z,21.40
2022-09-12T05:59:03.178Z,20.52
2022-09-12T06:01:31.342Z,19.38
2022-09-12T06:04:00.787Z,18.05
2022-09-12T06:06:29.003Z,17.60
2022-09-12T06:09:03.442Z,18.63
2022-09-12T06:11:32.128Z,17.23
2022-09-12T06:13:59.993Z,18.95
2022-09-12T06:16:29.298Z,20.45
2022-09-12T06:18:59.306Z,21.95
2022-09-12T06:21:26.796Z,18.47
2022-09-12T06:23:55.550Z,17.90
2022-09-12T06:26:23.498Z,20.38
2022-09-12T06:28:50.372Z,20.20
2022-09-12T06:31:21.329Z,19.70
2022-09-12T06:33:50.373Z,20.63
2022-09-12T06:36:22.414Z,18.08
2022-09-12T06:38:57.185Z,22.00
2022-09-12T06:41:25.357Z,19.65
2022-09-12T06:43:51.970Z,17.25
2022-09-12T06:46:18.973Z,18.70
2022-09-12T06:48:45.634Z,20.40
2022-09-12T06:51:14.674Z,18.00
2022-09-12T06:53:42.040Z,15.68
2022-09-12T06:56:21.779Z,14.88
2022-09-12T06:58:50.250Z,14.87
2022-09-12T07:01:17.976Z,15.10
2022-09-12T07:03:48.980Z,13.35
2022-09-12T07:06:17.593Z,16.85
2022-09-12T07:08:44.392Z,14.48
2022-09-12T07:11:13.923Z,13.10
2022-09-12T07:13:41.784Z,12.82
2022-09-12T07:16:10.276Z,14.93
2022-09-12T07:18:40.559Z,13.65
2022-09-12T07:21:10.206Z,14.20
2022-09-12T07:23:36.622Z,12.93
2022-09-12T07:26:03.594Z,13.98
2022-09-12T07:28:32.067Z,14.35
2022-09-12T07:31:04.599Z,13.88
2022-09-12T07:33:31.041Z,15.82
2022-09-12T07:36:05.304Z,17.13
2022-09-12T07:38:32.004Z,12.25
2022-09-12T07:40:58.819Z,11.85
2022-09-12T07:43:25.420Z,13.65
2022-09-12T07:45:56.421Z,13.38
2022-09-12T07:48:23.179Z,13.67
2022-09-12T07:51:00.129Z,15.18
2022-09-12T07:53:30.693Z,13.85
2022-09-12T07:55:57.049Z,14.65
2022-09-12T07:58:24.620Z,15.63
2022-09-12T08:00:51.280Z,16.10
2022-09-12T08:03:18.107Z,18.75
2022-09-12T08:05:44.506Z,18.52
2022-09-12T08:08:10.999Z,15.32
2022-09-12T08:10:37.379Z,18.40
2022-09-12T08:13:03.761Z,17.13
2022-09-12T08:15:31.118Z,18.35
2022-09-12T08:17:57.618Z,13.80
2022-09-12T08:20:28.138Z,13.85
2022-09-12T08:22:54.792Z,14.02
2022-09-12T08:25:21.138Z,14.30
2022-09-12T08:27:48.285Z,16.13
2022-09-12T08:30:14.716Z,14.95
2022-09-12T08:32:41.056Z,11.90
2022-09-12T08:35:07.994Z,14.35
2022-09-12T08:37:34.332Z,16.23
2022-09-12T08:40:00.727Z,14.65
2022-09-12T08:42:51.603Z,13.63
2022-09-12T08:45:34.340Z,12.75
2022-09-12T08:48:04.509Z,13.10
2022-09-12T08:50:32.423Z,12.53
2022-09-12T08:53:03.290Z,12.20
2022-09-12T08:55:43.692Z,13.10
2022-09-12T08:58:14.841Z,12.85
2022-09-12T09:01:20.114Z,11.95
2022-09-12T09:04:12.936Z,11.27
2022-09-12T09:07:14.489Z,12.00
2022-09-12T09:10:03.057Z,12.40
2022-09-12T09:12:40.580Z,9.75
2022-09-12T09:15:37.717Z,10.55
2022-09-12T09:18:13.467Z,9.33
2022-09-12T09:20:52.880Z,10.18
2022-09-12T09:23:25.905Z,11.95
2022-09-12T09:26:04.799Z,11.02
2022-09-12T09:28:52.451Z,10.65
2022-09-12T09:31:21.151Z,10.10
2022-09-12T09:33:56.676Z,10.40
2022-09-12T09:36:31.256Z,10.10
2022-09-12T09:39:06.871Z,8.23
2022-09-12T09:41:42.811Z,9.35
2022-09-12T09:44:09.834Z,15.00
2022-09-12T09:46:36.414Z,26.60
2022-09-12T09:49:04.174Z,28.80
2022-09-12T09:51:39.036Z,12.65
2022-09-12T09:54:21.148Z,12.30
2022-09-12T09:56:47.733Z,13.33
2022-09-12T09:59:14.008Z,8.93
2022-09-12T10:02:04.126Z,10.43
2022-09-12T10:04:40.674Z,8.30
2022-09-12T10:07:18.731Z,9.43
2022-09-12T10:10:06.295Z,9.80
2022-09-12T10:12:33.045Z,17.60
2022-09-12T10:15:16.130Z,9.55
2022-09-12T10:17:46.305Z,9.43
2022-09-12T10:20:39.010Z,10.15
2022-09-12T10:23:37.773Z,20.60
2022-09-12T10:26:16.499Z,29.88
2022-09-12T10:28:54.880Z,8.07
2022-09-12T10:31:35.968Z,8.60
2022-09-12T10:34:02.382Z,9.40
2022-09-12T10:36:39.781Z,8.53
2022-09-12T10:39:07.284Z,6.55
2022-09-12T10:41:40.375Z,7.80
2022-09-12T10:44:24.555Z,8.20
2022-09-12T10:46:50.947Z,14.02
2022-09-12T10:49:27.533Z,7.70
2022-09-12T10:51:55.918Z,7.65
2022-09-12T10:54:26.696Z,8.48
2022-09-12T10:57:23.867Z,11.55
2022-09-12T10:59:58.845Z,7.53
2022-09-12T11:02:31.704Z,8.43
2022-09-12T11:05:25.908Z,8.35
2022-09-12T11:08:10.848Z,7.05
2022-09-12T11:11:07.439Z,8.13
2022-09-12T11:14:03.264Z,7.45
2022-09-12T11:16:42.106Z,10.43
2022-09-12T11:19:51.544Z,10.00
2022-09-12T11:22:43.652Z,9.35
2022-09-12T11:25:22.760Z,7.28
2022-09-12T11:28:15.365Z,9.05
2022-09-12T11:31:03.643Z,8.27
2022-09-12T11:33:45.402Z,9.00
2022-09-12T11:36:21.066Z,10.38
2022-09-12T11:38:52.280Z,7.85
2022-09-12T11:41:31.375Z,8.00
2022-09-12T11:44:22.237Z,10.10
2022-09-12T11:46:51.885Z,10.20
2022-09-12T11:49:35.548Z,6.95
2022-09-12T11:52:15.787Z,8.90
2022-09-12T11:55:06.331Z,13.23
2022-09-12T11:57:56.013Z,7.83
2022-09-12T12:00:32.693Z,8.63
2022-09-12T12:03:24.417Z,8.85
2022-09-12T12:06:08.971Z,8.10
2022-09-12T12:08:41.433Z,24.95
2022-09-12T12:11:09.255Z,8.77
2022-09-12T12:13:43.138Z,7.65
2022-09-12T12:16:24.862Z,8.52
2022-09-12T12:19:00.231Z,9.25
2022-09-12T12:21:29.648Z,8.95
2022-09-12T12:24:08.193Z,8.43
2022-09-12T12:26:40.641Z,7.70
2022-09-12T12:29:11.173Z,7.53
2022-09-12T12:31:59.262Z,6.28
2022-09-12T12:34:31.721Z,6.75
2022-09-12T12:36:59.258Z,7.23
2022-09-12T12:39:31.439Z,6.05
2022-09-12T12:42:02.043Z,5.60
2022-09-12T12:44:47.251Z,6.03
2022-09-12T12:47:25.766Z,6.75
2022-09-12T12:50:05.559Z,6.70
2022-09-12T12:52:46.005Z,5.13
2022-09-12T12:55:22.544Z,5.80
2022-09-12T12:57:51.041Z,7.38
2022-09-12T13:00:20.430Z,5.43
2022-09-12T13:03:34.054Z,5.10
2022-09-12T13:06:07.234Z,5.88
2022-09-12T13:08:36.780Z,5.00
2022-09-12T13:11:08.826Z,5.18
2022-09-12T13:13:47.118Z,5.03
2022-09-12T13:16:38.797Z,6.33
2022-09-12T13:19:18.245Z,6.30
2022-09-12T13:22:02.214Z,5.28
2022-09-12T13:24:29.136Z,5.13
2022-09-12T13:26:57.540Z,4.22
2022-09-12T13:29:26.629Z,4.87
2022-09-12T13:31:56.619Z,3.80
2022-09-12T13:34:27.689Z,3.80
2022-09-12T13:37:13.692Z,5.72
2022-09-12T13:40:16.056Z,4.53
2022-09-12T13:42:49.563Z,3.87
2022-09-12T13:45:20.451Z,4.82
2022-09-12T13:47:50.071Z,6.22
2022-09-12T13:50:26.386Z,3.95
2022-09-12T13:52:57.082Z,5.57
2022-09-12T13:55:33.314Z,5.57
2022-09-12T13:58:24.647Z,3.90
2022-09-12T14:01:07.946Z,3.67
2022-09-12T14:04:08.477Z,5.00
2022-09-12T14:06:49.964Z,3.42
2022-09-12T14:09:25.325Z,3.83
2022-09-12T14:11:52.933Z,3.95
2022-09-12T14:14:31.350Z,4.40
2022-09-12T14:16:58.989Z,4.13
2022-09-12T14:19:26.596Z,6.13
2022-09-12T14:21:53.818Z,4.03
2022-09-12T14:24:23.260Z,4.28
2022-09-12T14:26:52.878Z,3.60
2022-09-12T14:29:20.433Z,4.75
2022-09-12T14:31:46.873Z,3.60
2022-09-12T14:34:16.748Z,4.70
2022-09-12T14:36:48.945Z,6.53
2022-09-12T14:39:39.712Z,4.40
2022-09-12T14:42:21.530Z,4.20
2022-09-12T14:45:09.830Z,5.32
2022-09-12T14:47:42.073Z,3.40
2022-09-12T14:50:21.480Z,3.78
2022-09-12T14:53:06.191Z,3.40
2022-09-12T14:55:35.294Z,3.65
2022-09-12T14:58:26.490Z,5.55
2022-09-12T15:01:22.599Z,3.37
2022-09-12T15:03:53.300Z,2.83
2022-09-12T15:06:25.508Z,3.08
2022-09-12T15:08:54.601Z,3.58
2022-09-12T15:11:21.437Z,3.28
2022-09-12T15:13:48.096Z,3.27
2022-09-12T15:16:15.656Z,4.47
2022-09-12T15:18:42.599Z,4.82
2022-09-12T15:21:13.711Z,4.03
2022-09-12T15:23:45.654Z,7.10
2022-09-12T15:26:15.345Z,4.67
2022-09-12T15:28:41.789Z,4.13
2022-09-12T15:31:19.047Z,5.30
2022-09-12T15:33:45.459Z,6.57
2022-09-12T15:36:18.683Z,3.72
2022-09-12T15:38:45.852Z,4.83
2022-09-12T15:41:16.826Z,4.35
2022-09-12T15:43:43.604Z,4.70
2022-09-12T15:46:12.170Z,4.93
2022-09-12T15:48:39.036Z,4.93
2022-09-12T15:51:12.384Z,3.70
2022-09-12T15:53:42.176Z,4.57
2022-09-12T15:56:08.764Z,5.78
2022-09-12T15:58:35.158Z,3.58
2022-09-12T16:01:02.373Z,4.22
2022-09-12T16:03:29.863Z,4.13
2022-09-12T16:05:58.937Z,3.70
2022-09-12T16:08:25.298Z,5.40
2022-09-12T16:10:58.279Z,5.88
2022-09-12T16:13:25.416Z,4.93
2022-09-12T16:15:56.121Z,4.93
2022-09-12T16:18:22.515Z,6.05
2022-09-12T16:20:53.040Z,4.20
2022-09-12T16:23:19.376Z,2.90
2022-09-12T16:25:46.280Z,4.65
2022-09-12T16:28:12.701Z,4.33
2022-09-12T16:30:39.073Z,5.63
2022-09-12T16:33:05.408Z,4.80
2022-09-12T16:35:32.620Z,4.35
2022-09-12T16:37:58.941Z,5.65
2022-09-12T16:40:25.284Z,4.70
2022-09-12T16:42:51.622Z,4.30
2022-09-12T16:45:18.066Z,3.60
2022-09-12T16:47:44.398Z,4.63
2022-09-12T16:50:11.103Z,5.97
2022-09-12T16:52:37.740Z,4.07
2022-09-12T16:55:04.415Z,4.85
2022-09-12T16:57:30.758Z,4.85
2022-09-12T16:59:57.118Z,4.32
2022-09-12T17:02:23.662Z,4.63
2022-09-12T17:04:50.402Z,4.50
2022-09-12T17:07:16.731Z,4.10
2022-09-12T17:09:46.250Z,3.97
2022-09-12T17:12:14.730Z,4.53
2022-09-12T17:14:41.062Z,4.60
2022-09-12T17:17:07.448Z,5.17
2022-09-12T17:19:33.799Z,6.60
2022-09-12T17:22:00.252Z,7.38
2022-09-12T17:24:26.708Z,4.70
2022-09-12T17:26:53.657Z,4.55
2022-09-12T17:29:20.321Z,4.23
2022-09-12T17:31:46.777Z,6.03
2022-09-12T17:34:17.523Z,6.15
2022-09-12T17:36:45.422Z,5.53
2022-09-12T17:39:13.501Z,4.63
2022-09-12T17:41:42.649Z,7.50
2022-09-12T17:44:11.842Z,4.90
2022-09-12T17:46:39.337Z,7.25
2022-09-12T17:49:08.923Z,6.43
2022-09-12T17:51:36.121Z,6.35
2022-09-12T17:54:06.643Z,9.37
2022-09-12T17:56:34.494Z,7.18
2022-09-12T17:59:01.453Z,7.63
2022-09-12T18:01:49.420Z,5.68
2022-09-12T18:04:16.766Z,6.93
2022-09-12T18:06:47.959Z,4.07
2022-09-12T18:09:17.860Z,6.10
2022-09-12T18:11:44.861Z,5.10
2022-09-12T18:14:14.169Z,9.38
2022-09-12T18:16:41.433Z,7.35
2022-09-12T18:19:08.041Z,4.83
2022-09-12T18:21:34.444Z,4.72
2022-09-12T18:24:01.223Z,6.00
2022-09-12T18:26:28.934Z,6.57
2022-09-12T18:28:56.340Z,6.45
2022-09-12T18:31:25.287Z,5.93
2022-09-12T18:33:52.401Z,5.22
2022-09-12T18:36:19.767Z,5.25
2022-09-12T18:38:47.563Z,5.35
2022-09-12T18:41:16.160Z,4.85
2022-09-12T18:43:43.065Z,6.07
2022-09-12T18:46:12.576Z,6.18
2022-09-12T18:48:39.597Z,6.20
2022-09-12T18:51:17.898Z,6.68
2022-09-12T18:53:56.286Z,5.60
2022-09-12T18:56:27.879Z,5.50
2022-09-12T18:58:56.596Z,7.28
2022-09-12T19:01:28.824Z,7.28
2022-09-12T19:03:56.054Z,6.57
2022-09-12T19:06:29.504Z,5.20
2022-09-12T19:08:57.035Z,5.73
2022-09-12T19:11:25.982Z,5.78
2022-09-12T19:13:53.937Z,5.75
2022-09-12T19:16:26.716Z,6.25
2022-09-12T19:18:55.514Z,6.72
2022-09-12T19:21:24.864Z,5.30
2022-09-12T19:23:52.376Z,7.38
2022-09-12T19:26:20.376Z,7.75
2022-09-12T19:28:47.040Z,6.80
2022-09-12T19:31:15.586Z,5.85
2022-09-12T19:33:42.609Z,6.70
2022-09-12T19:36:27.597Z,6.82
2022-09-12T19:38:59.041Z,5.78
2022-09-12T19:41:26.038Z,7.28
2022-09-12T19:43:52.377Z,5.85
2022-09-12T19:46:21.008Z,6.50
2022-09-12T19:48:47.911Z,6.38
2022-09-12T19:51:16.032Z,7.22
2022-09-12T19:53:43.073Z,7.28
2022-09-12T19:56:11.802Z,8.20
2022-09-12T19:58:40.410Z,7.50
2022-09-12T20:01:15.284Z,6.70
2022-09-12T20:03:42.419Z,7.43
2022-09-12T20:06:14.307Z,8.00
2022-09-12T20:08:42.315Z,7.45
2022-09-12T20:11:09.920Z,5.60
2022-09-12T20:13:36.463Z,5.45
2022-09-12T20:16:07.347Z,5.38
2022-09-12T20:18:34.120Z,4.97
2022-09-12T20:21:11.719Z,6.45
2022-09-12T20:23:38.133Z,4.57
2022-09-12T20:26:04.714Z,5.35
2022-09-12T20:28:31.316Z,5.22
2022-09-12T20:31:02.811Z,4.70
2022-09-12T20:33:29.487Z,5.63
2022-09-12T20:36:10.983Z,6.53
2022-09-12T20:38:37.825Z,5.00
2022-09-12T20:41:06.200Z,5.38
2022-09-12T20:43:32.628Z,4.18
2022-09-12T20:45:59.109Z,4.72
2022-09-12T20:48:25.895Z,6.20
2022-09-12T20:50:52.245Z,6.95
2022-09-12T20:53:18.649Z,5.78
2022-09-12T20:55:52.252Z,4.22
2022-09-12T20:58:20.088Z,5.30
2022-09-12T21:00:46.953Z,4.40
2022-09-12T21:03:14.142Z,5.05
2022-09-12T21:05:42.704Z,5.97
2022-09-12T21:08:10.042Z,4.68
2022-09-12T21:10:36.615Z,7.40
2022-09-12T21:13:03.024Z,4.40
2022-09-12T21:15:29.346Z,4.10
2022-09-12T21:17:55.684Z,4.57
2022-09-12T21:20:22.011Z,5.30
2022-09-12T21:22:48.429Z,6.00
2022-09-12T21:25:14.844Z,5.63
2022-09-12T21:27:41.182Z,5.97
2022-09-12T21:30:07.906Z,6.20
2022-09-12T21:32:35.894Z,8.10
2022-09-12T21:35:03.891Z,4.50
2022-09-12T21:37:30.299Z,5.57
2022-09-12T21:39:57.705Z,5.00
2022-09-12T21:42:24.804Z,4.97
2022-09-12T21:44:51.267Z,7.45
2022-09-12T21:47:17.774Z,4.72
2022-09-12T21:49:44.133Z,8.40
2022-09-12T21:52:12.553Z,5.15
2022-09-12T21:54:39.081Z,6.00
2022-09-12T21:57:05.647Z,6.22
2022-09-12T21:59:32.003Z,5.28
2022-09-12T22:01:58.387Z,5.70
2022-09-12T22:04:25.087Z,6.20
2022-09-12T22:06:51.401Z,5.55
2022-09-12T22:09:17.799Z,5.90
2022-09-12T22:11:44.122Z,5.20
2022-09-12T22:14:10.934Z,5.77
2022-09-12T22:16:37.252Z,5.00
2022-09-12T22:19:03.699Z,5.00
2022-09-12T22:21:30.032Z,4.88
2022-09-12T22:24:14.692Z,5.13
2022-09-12T22:26:43.166Z,6.13
2022-09-12T22:29:11.049Z,6.07
2022-09-12T22:31:37.957Z,5.97
2022-09-12T22:34:04.631Z,5.95
2022-09-12T22:36:31.884Z,5.90
2022-09-12T22:38:59.762Z,5.77
2022-09-12T22:41:26.113Z,5.50
2022-09-12T22:43:52.467Z,5.93
2022-09-12T22:46:18.992Z,4.50
2022-09-12T22:48:45.612Z,5.35
2022-09-12T22:51:11.987Z,5.50
2022-09-12T22:53:38.770Z,6.57
2022-09-12T22:56:05.763Z,6.00
2022-09-12T22:58:33.413Z,5.43
2022-09-12T23:00:59.861Z,6.93
2022-09-12T23:03:26.352Z,5.37
2022-09-12T23:05:52.731Z,5.60
2022-09-12T23:08:19.320Z,6.30
2022-09-12T23:10:46.936Z,6.22
2022-09-12T23:13:13.471Z,6.10
2022-09-12T23:15:39.844Z,5.93
2022-09-12T23:18:06.430Z,8.00
2022-09-12T23:20:32.896Z,6.47
2022-09-12T23:22:59.230Z,7.70
2022-09-12T23:25:26.132Z,5.32
2022-09-12T23:27:52.863Z,7.77
2022-09-12T23:30:21.494Z,6.47
2022-09-12T23:32:49.104Z,6.07
2022-09-12T23:35:19.360Z,6.97
2022-09-12T23:37:46.870Z,8.38
2022-09-12T23:40:13.463Z,6.60
2022-09-12T23:42:39.867Z,6.60
2022-09-12T23:45:06.586Z,6.85
2022-09-12T23:47:32.952Z,6.93
2022-09-12T23:49:59.304Z,6.80
2022-09-12T23:52:25.628Z,7.20
2022-09-12T23:54:51.969Z,7.85
2022-09-12T23:57:18.296Z,5.93
2022-09-12T23:59:44.675Z,5.53
